sensor_id;sensor_type;location;lat;lon;timestamp;P1;durP1;ratioP1;P2;durP2;ratioP2
61907;SDS011;47864;52.526;19.672;2023-09-30T00:01:10;27.25;;;12.52;;
61907;SDS011;47864;52.526;19.672;2023-09-30T00:03:11;21.20;;;11.63;;
61907;SDS011;47864;52.526;19.672;2023-09-30T00:05:13;22.38;;;11.02;;
61907;SDS011;47864;52.526;19.672;2023-09-30T00:07:15;27.70;;;11.85;;
61907;SDS011;47864;52.526;19.672;2023-09-30T00:09:17;25.95;;;11.45;;
61907;SDS011;47864;52.526;19.672;2023-09-30T00:11:18;19.85;;;10.27;;
61907;SDS011;47864;52.526;19.672;2023-09-30T00:13:20;22.65;;;11.32;;
61907;SDS011;47864;52.526;19.672;2023-09-30T00:15:22;20.08;;;10.60;;
61907;SDS011;47864;52.526;19.672;2023-09-30T00:17:23;20.23;;;10.07;;
61907;SDS011;47864;52.526;19.672;2023-09-30T00:19:25;26.00;;;10.70;;
61907;SDS011;47864;52.526;19.672;2023-09-30T00:21:27;25.05;;;10.30;;
61907;SDS011;47864;52.526;19.672;2023-09-30T00:23:28;23.38;;;10.23;;
61907;SDS011;47864;52.526;19.672;2023-09-30T00:25:30;34.22;;;10.65;;
61907;SDS011;47864;52.526;19.672;2023-09-30T00:27:31;24.83;;;10.15;;
61907;SDS011;47864;52.526;19.672;2023-09-30T00:29:33;23.80;;;10.20;;
61907;SDS011;47864;52.526;19.672;2023-09-30T00:31:35;25.05;;;11.02;;
61907;SDS011;47864;52.526;19.672;2023-09-30T00:33:36;20.98;;;9.60;;
61907;SDS011;47864;52.526;19.672;2023-09-30T00:35:38;18.63;;;8.73;;
61907;SDS011;47864;52.526;19.672;2023-09-30T00:37:40;21.65;;;9.60;;
61907;SDS011;47864;52.526;19.672;2023-09-30T00:39:41;25.13;;;10.68;;
61907;SDS011;47864;52.526;19.672;2023-09-30T00:41:43;23.40;;;9.23;;
61907;SDS011;47864;52.526;19.672;2023-09-30T00:43:47;17.17;;;9.40;;
61907;SDS011;47864;52.526;19.672;2023-09-30T00:45:51;21.45;;;9.60;;
61907;SDS011;47864;52.526;19.672;2023-09-30T00:47:56;16.85;;;9.60;;
61907;SDS011;47864;52.526;19.672;2023-09-30T00:49:58;20.38;;;9.57;;
61907;SDS011;47864;52.526;19.672;2023-09-30T00:52:00;22.75;;;10.40;;
61907;SDS011;47864;52.526;19.672;2023-09-30T00:54:02;21.77;;;10.20;;
61907;SDS011;47864;52.526;19.672;2023-09-30T00:56:04;17.90;;;9.45;;
61907;SDS011;47864;52.526;19.672;2023-09-30T00:58:06;16.60;;;10.20;;
61907;SDS011;47864;52.526;19.672;2023-09-30T01:00:08;20.75;;;9.65;;
61907;SDS011;47864;52.526;19.672;2023-09-30T01:04:14;19.27;;;9.57;;
61907;SDS011;47864;52.526;19.672;2023-09-30T01:06:16;15.23;;;9.88;;
61907;SDS011;47864;52.526;19.672;2023-09-30T01:08:18;18.73;;;9.50;;
61907;SDS011;47864;52.526;19.672;2023-09-30T01:10:20;17.75;;;9.57;;
61907;SDS011;47864;52.526;19.672;2023-09-30T01:12:21;17.98;;;9.63;;
61907;SDS011;47864;52.526;19.672;2023-09-30T01:14:30;18.02;;;8.88;;
61907;SDS011;47864;52.526;19.672;2023-09-30T01:16:33;17.83;;;9.38;;
61907;SDS011;47864;52.526;19.672;2023-09-30T01:18:34;19.13;;;9.38;;
61907;SDS011;47864;52.526;19.672;2023-09-30T01:20:37;15.50;;;10.45;;
61907;SDS011;47864;52.526;19.672;2023-09-30T01:22:38;16.55;;;10.23;;
61907;SDS011;47864;52.526;19.672;2023-09-30T01:24:40;22.35;;;10.85;;
61907;SDS011;47864;52.526;19.672;2023-09-30T01:26:43;24.00;;;13.18;;
61907;SDS011;47864;52.526;19.672;2023-09-30T01:28:45;20.23;;;12.55;;
61907;SDS011;47864;52.526;19.672;2023-09-30T01:30:46;18.90;;;12.60;;
61907;SDS011;47864;52.526;19.672;2023-09-30T01:32:48;23.52;;;12.50;;
61907;SDS011;47864;52.526;19.672;2023-09-30T01:34:49;23.67;;;12.43;;
61907;SDS011;47864;52.526;19.672;2023-09-30T01:36:51;25.25;;;13.05;;
61907;SDS011;47864;52.526;19.672;2023-09-30T01:38:53;18.48;;;12.43;;
61907;SDS011;47864;52.526;19.672;2023-09-30T01:40:54;20.13;;;11.80;;
61907;SDS011;47864;52.526;19.672;2023-09-30T01:42:59;19.98;;;12.43;;
61907;SDS011;47864;52.526;19.672;2023-09-30T01:45:01;23.98;;;10.90;;
61907;SDS011;47864;52.526;19.672;2023-09-30T01:47:03;18.98;;;10.75;;
61907;SDS011;47864;52.526;19.672;2023-09-30T01:49:04;20.85;;;11.25;;
61907;SDS011;47864;52.526;19.672;2023-09-30T01:51:06;22.75;;;10.48;;
61907;SDS011;47864;52.526;19.672;2023-09-30T01:53:07;21.58;;;10.32;;
61907;SDS011;47864;52.526;19.672;2023-09-30T01:55:09;24.33;;;10.05;;
61907;SDS011;47864;52.526;19.672;2023-09-30T01:57:10;19.00;;;11.15;;
61907;SDS011;47864;52.526;19.672;2023-09-30T01:59:12;23.98;;;11.05;;
61907;SDS011;47864;52.526;19.672;2023-09-30T02:01:13;16.42;;;10.48;;
61907;SDS011;47864;52.526;19.672;2023-09-30T02:03:15;19.65;;;10.57;;
61907;SDS011;47864;52.526;19.672;2023-09-30T02:05:17;17.23;;;10.50;;
61907;SDS011;47864;52.526;19.672;2023-09-30T02:07:18;16.80;;;10.70;;
61907;SDS011;47864;52.526;19.672;2023-09-30T02:09:20;16.55;;;9.98;;
61907;SDS011;47864;52.526;19.672;2023-09-30T02:11:21;15.02;;;9.73;;
61907;SDS011;47864;52.526;19.672;2023-09-30T02:13:23;16.80;;;10.02;;
61907;SDS011;47864;52.526;19.672;2023-09-30T02:15:24;16.83;;;10.25;;
61907;SDS011;47864;52.526;19.672;2023-09-30T02:17:26;15.68;;;10.05;;
61907;SDS011;47864;52.526;19.672;2023-09-30T02:19:28;15.52;;;9.82;;
61907;SDS011;47864;52.526;19.672;2023-09-30T02:21:30;16.05;;;10.73;;
61907;SDS011;47864;52.526;19.672;2023-09-30T02:23:31;23.67;;;11.63;;
61907;SDS011;47864;52.526;19.672;2023-09-30T02:25:33;17.10;;;10.52;;
61907;SDS011;47864;52.526;19.672;2023-09-30T02:27:34;16.98;;;11.57;;
61907;SDS011;47864;52.526;19.672;2023-09-30T02:29:36;19.85;;;11.82;;
61907;SDS011;47864;52.526;19.672;2023-09-30T02:31:37;21.02;;;12.10;;
61907;SDS011;47864;52.526;19.672;2023-09-30T02:33:39;22.25;;;11.73;;
61907;SDS011;47864;52.526;19.672;2023-09-30T02:35:44;19.75;;;11.85;;
61907;SDS011;47864;52.526;19.672;2023-09-30T02:37:46;20.45;;;11.90;;
61907;SDS011;47864;52.526;19.672;2023-09-30T02:39:48;18.55;;;11.25;;
61907;SDS011;47864;52.526;19.672;2023-09-30T02:41:49;17.67;;;12.00;;
61907;SDS011;47864;52.526;19.672;2023-09-30T02:43:51;21.25;;;11.80;;
61907;SDS011;47864;52.526;19.672;2023-09-30T02:45:53;19.73;;;11.18;;
61907;SDS011;47864;52.526;19.672;2023-09-30T02:47:55;17.02;;;11.63;;
61907;SDS011;47864;52.526;19.672;2023-09-30T02:49:56;20.90;;;11.85;;
61907;SDS011;47864;52.526;19.672;2023-09-30T02:51:59;17.27;;;11.35;;
61907;SDS011;47864;52.526;19.672;2023-09-30T02:54:00;21.88;;;12.07;;
61907;SDS011;47864;52.526;19.672;2023-09-30T02:56:04;23.73;;;12.40;;
61907;SDS011;47864;52.526;19.672;2023-09-30T02:58:06;19.30;;;11.68;;
61907;SDS011;47864;52.526;19.672;2023-09-30T03:00:09;14.50;;;10.90;;
61907;SDS011;47864;52.526;19.672;2023-09-30T03:02:11;19.73;;;11.93;;
61907;SDS011;47864;52.526;19.672;2023-09-30T03:04:13;21.35;;;11.25;;
61907;SDS011;47864;52.526;19.672;2023-09-30T03:06:14;18.30;;;11.80;;
61907;SDS011;47864;52.526;19.672;2023-09-30T03:08:16;20.90;;;11.55;;
61907;SDS011;47864;52.526;19.672;2023-09-30T03:10:17;23.83;;;13.57;;
61907;SDS011;47864;52.526;19.672;2023-09-30T03:12:19;42.17;;;22.95;;
61907;SDS011;47864;52.526;19.672;2023-09-30T03:14:20;33.53;;;20.67;;
61907;SDS011;47864;52.526;19.672;2023-09-30T03:16:22;28.30;;;17.23;;
61907;SDS011;47864;52.526;19.672;2023-09-30T03:18:24;24.00;;;14.65;;
61907;SDS011;47864;52.526;19.672;2023-09-30T03:20:25;26.60;;;14.15;;
61907;SDS011;47864;52.526;19.672;2023-09-30T03:22:27;19.05;;;12.93;;
61907;SDS011;47864;52.526;19.672;2023-09-30T03:24:28;20.98;;;13.50;;
61907;SDS011;47864;52.526;19.672;2023-09-30T03:26:30;20.13;;;13.27;;
61907;SDS011;47864;52.526;19.672;2023-09-30T03:28:32;20.73;;;14.15;;
61907;SDS011;47864;52.526;19.672;2023-09-30T03:30:33;24.63;;;12.80;;
61907;SDS011;47864;52.526;19.672;2023-09-30T03:32:35;21.33;;;12.90;;
61907;SDS011;47864;52.526;19.672;2023-09-30T03:34:37;22.80;;;12.52;;
61907;SDS011;47864;52.526;19.672;2023-09-30T03:36:38;25.00;;;12.38;;
61907;SDS011;47864;52.526;19.672;2023-09-30T03:38:40;20.92;;;12.60;;
61907;SDS011;47864;52.526;19.672;2023-09-30T03:40:42;20.52;;;12.88;;
61907;SDS011;47864;52.526;19.672;2023-09-30T03:42:43;23.42;;;12.93;;
61907;SDS011;47864;52.526;19.672;2023-09-30T03:44:46;20.73;;;12.07;;
61907;SDS011;47864;52.526;19.672;2023-09-30T03:46:47;20.98;;;12.65;;
61907;SDS011;47864;52.526;19.672;2023-09-30T03:48:49;22.00;;;13.40;;
61907;SDS011;47864;52.526;19.672;2023-09-30T03:50:50;24.00;;;12.45;;
61907;SDS011;47864;52.526;19.672;2023-09-30T03:52:52;18.88;;;13.13;;
61907;SDS011;47864;52.526;19.672;2023-09-30T03:55:02;23.73;;;12.90;;
61907;SDS011;47864;52.526;19.672;2023-09-30T03:57:04;21.52;;;12.88;;
61907;SDS011;47864;52.526;19.672;2023-09-30T03:59:06;25.70;;;12.98;;
61907;SDS011;47864;52.526;19.672;2023-09-30T04:01:08;20.48;;;12.35;;
61907;SDS011;47864;52.526;19.672;2023-09-30T04:03:10;17.17;;;12.23;;
61907;SDS011;47864;52.526;19.672;2023-09-30T04:05:12;19.58;;;12.80;;
61907;SDS011;47864;52.526;19.672;2023-09-30T04:07:13;23.88;;;12.13;;
61907;SDS011;47864;52.526;19.672;2023-09-30T04:09:15;16.85;;;11.77;;
61907;SDS011;47864;52.526;19.672;2023-09-30T04:11:16;16.65;;;12.32;;
61907;SDS011;47864;52.526;19.672;2023-09-30T04:13:18;19.50;;;12.30;;
61907;SDS011;47864;52.526;19.672;2023-09-30T04:15:19;19.55;;;11.90;;
61907;SDS011;47864;52.526;19.672;2023-09-30T04:17:21;19.75;;;11.93;;
61907;SDS011;47864;52.526;19.672;2023-09-30T04:19:22;18.02;;;11.73;;
61907;SDS011;47864;52.526;19.672;2023-09-30T04:21:24;18.95;;;11.65;;
61907;SDS011;47864;52.526;19.672;2023-09-30T04:23:26;16.70;;;12.10;;
61907;SDS011;47864;52.526;19.672;2023-09-30T04:25:27;18.15;;;12.07;;
61907;SDS011;47864;52.526;19.672;2023-09-30T04:27:29;20.63;;;11.80;;
61907;SDS011;47864;52.526;19.672;2023-09-30T04:29:30;23.13;;;12.27;;
61907;SDS011;47864;52.526;19.672;2023-09-30T04:31:32;15.27;;;10.90;;
61907;SDS011;47864;52.526;19.672;2023-09-30T04:33:33;18.13;;;12.38;;
61907;SDS011;47864;52.526;19.672;2023-09-30T04:35:35;16.27;;;11.00;;
61907;SDS011;47864;52.526;19.672;2023-09-30T04:37:37;17.83;;;10.85;;
61907;SDS011;47864;52.526;19.672;2023-09-30T04:39:38;15.82;;;11.35;;
61907;SDS011;47864;52.526;19.672;2023-09-30T04:41:40;16.67;;;11.57;;
61907;SDS011;47864;52.526;19.672;2023-09-30T04:43:42;18.48;;;11.82;;
61907;SDS011;47864;52.526;19.672;2023-09-30T04:45:43;15.95;;;11.45;;
61907;SDS011;47864;52.526;19.672;2023-09-30T04:47:45;17.98;;;11.45;;
61907;SDS011;47864;52.526;19.672;2023-09-30T04:49:47;18.70;;;11.73;;
61907;SDS011;47864;52.526;19.672;2023-09-30T04:51:48;18.05;;;11.88;;
61907;SDS011;47864;52.526;19.672;2023-09-30T04:53:50;18.77;;;11.18;;
61907;SDS011;47864;52.526;19.672;2023-09-30T04:55:51;19.10;;;12.00;;
61907;SDS011;47864;52.526;19.672;2023-09-30T04:57:53;16.90;;;11.02;;
61907;SDS011;47864;52.526;19.672;2023-09-30T04:59:55;17.80;;;10.75;;
61907;SDS011;47864;52.526;19.672;2023-09-30T05:01:56;16.60;;;10.40;;
61907;SDS011;47864;52.526;19.672;2023-09-30T05:03:58;14.27;;;10.80;;
61907;SDS011;47864;52.526;19.672;2023-09-30T05:06:00;14.90;;;10.60;;
61907;SDS011;47864;52.526;19.672;2023-09-30T05:08:02;16.83;;;10.98;;
61907;SDS011;47864;52.526;19.672;2023-09-30T05:10:04;16.17;;;10.80;;
61907;SDS011;47864;52.526;19.672;2023-09-30T05:12:05;17.13;;;10.35;;
61907;SDS011;47864;52.526;19.672;2023-09-30T05:14:07;16.88;;;11.13;;
61907;SDS011;47864;52.526;19.672;2023-09-30T05:16:08;17.23;;;11.25;;
61907;SDS011;47864;52.526;19.672;2023-09-30T05:18:10;15.18;;;10.30;;
61907;SDS011;47864;52.526;19.672;2023-09-30T05:20:12;15.32;;;10.38;;
61907;SDS011;47864;52.526;19.672;2023-09-30T05:22:14;15.95;;;10.15;;
61907;SDS011;47864;52.526;19.672;2023-09-30T05:24:16;13.88;;;10.15;;
61907;SDS011;47864;52.526;19.672;2023-09-30T05:26:17;17.95;;;10.65;;
61907;SDS011;47864;52.526;19.672;2023-09-30T05:28:22;14.98;;;10.38;;
61907;SDS011;47864;52.526;19.672;2023-09-30T05:30:23;15.00;;;10.77;;
61907;SDS011;47864;52.526;19.672;2023-09-30T05:32:25;16.80;;;10.95;;
61907;SDS011;47864;52.526;19.672;2023-09-30T05:34:26;18.40;;;10.60;;
61907;SDS011;47864;52.526;19.672;2023-09-30T05:36:28;17.60;;;10.65;;
61907;SDS011;47864;52.526;19.672;2023-09-30T05:38:30;19.88;;;11.00;;
61907;SDS011;47864;52.526;19.672;2023-09-30T05:40:31;20.15;;;11.38;;
61907;SDS011;47864;52.526;19.672;2023-09-30T05:42:33;18.85;;;11.45;;
61907;SDS011;47864;52.526;19.672;2023-09-30T05:44:35;15.75;;;11.05;;
61907;SDS011;47864;52.526;19.672;2023-09-30T05:46:36;16.73;;;11.00;;
61907;SDS011;47864;52.526;19.672;2023-09-30T05:48:38;16.80;;;11.20;;
61907;SDS011;47864;52.526;19.672;2023-09-30T05:50:40;17.05;;;10.80;;
61907;SDS011;47864;52.526;19.672;2023-09-30T05:52:42;18.83;;;10.68;;
61907;SDS011;47864;52.526;19.672;2023-09-30T05:54:44;18.60;;;10.63;;
61907;SDS011;47864;52.526;19.672;2023-09-30T05:56:45;17.70;;;11.15;;
61907;SDS011;47864;52.526;19.672;2023-09-30T05:58:47;17.52;;;10.40;;
61907;SDS011;47864;52.526;19.672;2023-09-30T06:00:48;14.98;;;11.13;;
61907;SDS011;47864;52.526;19.672;2023-09-30T06:02:50;16.35;;;10.32;;
61907;SDS011;47864;52.526;19.672;2023-09-30T06:04:53;13.75;;;10.63;;
61907;SDS011;47864;52.526;19.672;2023-09-30T06:06:55;16.45;;;10.80;;
61907;SDS011;47864;52.526;19.672;2023-09-30T06:08:57;17.35;;;11.57;;
61907;SDS011;47864;52.526;19.672;2023-09-30T06:10:58;16.13;;;11.63;;
61907;SDS011;47864;52.526;19.672;2023-09-30T06:13:00;18.02;;;11.55;;
61907;SDS011;47864;52.526;19.672;2023-09-30T06:15:02;20.65;;;12.10;;
61907;SDS011;47864;52.526;19.672;2023-09-30T06:17:03;17.27;;;12.60;;
61907;SDS011;47864;52.526;19.672;2023-09-30T06:19:05;19.45;;;11.85;;
61907;SDS011;47864;52.526;19.672;2023-09-30T06:21:06;17.70;;;13.32;;
61907;SDS011;47864;52.526;19.672;2023-09-30T06:23:08;23.95;;;13.70;;
61907;SDS011;47864;52.526;19.672;2023-09-30T06:25:10;20.23;;;13.88;;
61907;SDS011;47864;52.526;19.672;2023-09-30T06:27:13;18.02;;;13.30;;
61907;SDS011;47864;52.526;19.672;2023-09-30T06:29:15;20.50;;;13.45;;
61907;SDS011;47864;52.526;19.672;2023-09-30T06:31:16;19.42;;;13.27;;
61907;SDS011;47864;52.526;19.672;2023-09-30T06:33:18;19.67;;;13.27;;
61907;SDS011;47864;52.526;19.672;2023-09-30T06:35:20;20.45;;;14.13;;
61907;SDS011;47864;52.526;19.672;2023-09-30T06:37:24;18.77;;;12.55;;
61907;SDS011;47864;52.526;19.672;2023-09-30T06:39:26;18.10;;;12.80;;
61907;SDS011;47864;52.526;19.672;2023-09-30T06:41:27;18.60;;;13.30;;
61907;SDS011;47864;52.526;19.672;2023-09-30T06:43:29;21.48;;;13.35;;
61907;SDS011;47864;52.526;19.672;2023-09-30T06:45:31;20.15;;;13.55;;
61907;SDS011;47864;52.526;19.672;2023-09-30T06:47:33;19.88;;;14.10;;
61907;SDS011;47864;52.526;19.672;2023-09-30T06:49:35;17.48;;;13.90;;
61907;SDS011;47864;52.526;19.672;2023-09-30T06:51:36;23.33;;;14.02;;
61907;SDS011;47864;52.526;19.672;2023-09-30T06:53:38;19.83;;;13.13;;
61907;SDS011;47864;52.526;19.672;2023-09-30T06:55:39;21.38;;;15.38;;
61907;SDS011;47864;52.526;19.672;2023-09-30T06:57:41;24.10;;;14.70;;
61907;SDS011;47864;52.526;19.672;2023-09-30T06:59:42;22.05;;;14.45;;
61907;SDS011;47864;52.526;19.672;2023-09-30T07:01:44;18.95;;;14.40;;
61907;SDS011;47864;52.526;19.672;2023-09-30T07:03:45;21.63;;;14.10;;
61907;SDS011;47864;52.526;19.672;2023-09-30T07:05:47;23.45;;;13.65;;
61907;SDS011;47864;52.526;19.672;2023-09-30T07:07:49;20.92;;;13.27;;
61907;SDS011;47864;52.526;19.672;2023-09-30T07:09:50;18.33;;;12.02;;
61907;SDS011;47864;52.526;19.672;2023-09-30T07:11:52;16.10;;;11.80;;
61907;SDS011;47864;52.526;19.672;2023-09-30T07:13:53;16.75;;;11.38;;
61907;SDS011;47864;52.526;19.672;2023-09-30T07:15:55;18.08;;;10.35;;
61907;SDS011;47864;52.526;19.672;2023-09-30T07:17:56;12.27;;;9.95;;
61907;SDS011;47864;52.526;19.672;2023-09-30T07:19:58;17.60;;;10.38;;
61907;SDS011;47864;52.526;19.672;2023-09-30T07:21:59;14.57;;;8.88;;
61907;SDS011;47864;52.526;19.672;2023-09-30T07:24:05;15.13;;;8.52;;
61907;SDS011;47864;52.526;19.672;2023-09-30T07:26:07;17.73;;;8.55;;
61907;SDS011;47864;52.526;19.672;2023-09-30T07:28:08;17.00;;;8.63;;
61907;SDS011;47864;52.526;19.672;2023-09-30T07:30:11;13.30;;;8.05;;
61907;SDS011;47864;52.526;19.672;2023-09-30T07:32:13;8.88;;;6.43;;
61907;SDS011;47864;52.526;19.672;2023-09-30T07:34:15;11.52;;;7.10;;
61907;SDS011;47864;52.526;19.672;2023-09-30T07:36:16;10.40;;;6.63;;
61907;SDS011;47864;52.526;19.672;2023-09-30T07:38:18;11.38;;;6.03;;
61907;SDS011;47864;52.526;19.672;2023-09-30T07:40:19;10.82;;;5.90;;
61907;SDS011;47864;52.526;19.672;2023-09-30T07:42:21;10.88;;;5.70;;
61907;SDS011;47864;52.526;19.672;2023-09-30T07:44:22;8.98;;;5.75;;
61907;SDS011;47864;52.526;19.672;2023-09-30T07:46:24;9.43;;;5.82;;
61907;SDS011;47864;52.526;19.672;2023-09-30T07:48:25;10.77;;;5.15;;
61907;SDS011;47864;52.526;19.672;2023-09-30T07:50:27;10.32;;;4.88;;
61907;SDS011;47864;52.526;19.672;2023-09-30T07:52:29;10.27;;;4.68;;
61907;SDS011;47864;52.526;19.672;2023-09-30T07:54:30;7.70;;;3.60;;
61907;SDS011;47864;52.526;19.672;2023-09-30T07:56:32;8.68;;;3.63;;
61907;SDS011;47864;52.526;19.672;2023-09-30T07:58:34;6.75;;;3.00;;
61907;SDS011;47864;52.526;19.672;2023-09-30T08:00:35;5.53;;;2.47;;
61907;SDS011;47864;52.526;19.672;2023-09-30T08:02:37;8.32;;;2.40;;
61907;SDS011;47864;52.526;19.672;2023-09-30T08:04:39;8.70;;;2.60;;
61907;SDS011;47864;52.526;19.672;2023-09-30T08:06:41;8.45;;;2.40;;
61907;SDS011;47864;52.526;19.672;2023-09-30T08:08:42;6.65;;;2.35;;
61907;SDS011;47864;52.526;19.672;2023-09-30T08:10:44;5.60;;;2.05;;
61907;SDS011;47864;52.526;19.672;2023-09-30T08:12:45;6.40;;;2.30;;
61907;SDS011;47864;52.526;19.672;2023-09-30T08:14:47;6.30;;;2.20;;
61907;SDS011;47864;52.526;19.672;2023-09-30T08:16:48;8.98;;;2.20;;
61907;SDS011;47864;52.526;19.672;2023-09-30T08:18:50;4.82;;;1.48;;
61907;SDS011;47864;52.526;19.672;2023-09-30T08:20:52;7.90;;;2.05;;
61907;SDS011;47864;52.526;19.672;2023-09-30T08:22:53;12.18;;;2.10;;
61907;SDS011;47864;52.526;19.672;2023-09-30T08:24:55;5.97;;;2.20;;
61907;SDS011;47864;52.526;19.672;2023-09-30T08:26:56;7.97;;;2.00;;
61907;SDS011;47864;52.526;19.672;2023-09-30T08:28:58;6.68;;;2.05;;
61907;SDS011;47864;52.526;19.672;2023-09-30T08:31:03;7.32;;;1.98;;
61907;SDS011;47864;52.526;19.672;2023-09-30T08:33:05;6.88;;;1.85;;
61907;SDS011;47864;52.526;19.672;2023-09-30T08:35:07;8.45;;;2.13;;
61907;SDS011;47864;52.526;19.672;2023-09-30T08:37:09;9.38;;;2.03;;
61907;SDS011;47864;52.526;19.672;2023-09-30T08:39:11;7.25;;;2.10;;
61907;SDS011;47864;52.526;19.672;2023-09-30T08:41:15;9.18;;;2.30;;
61907;SDS011;47864;52.526;19.672;2023-09-30T08:43:31;7.15;;;2.22;;
61907;SDS011;47864;52.526;19.672;2023-09-30T08:45:39;4.47;;;1.70;;
61907;SDS011;47864;52.526;19.672;2023-09-30T08:47:44;9.57;;;1.98;;
61907;SDS011;47864;52.526;19.672;2023-09-30T08:49:46;5.97;;;2.25;;
61907;SDS011;47864;52.526;19.672;2023-09-30T08:51:51;9.52;;;2.35;;
61907;SDS011;47864;52.526;19.672;2023-09-30T08:53:57;12.45;;;2.55;;
61907;SDS011;47864;52.526;19.672;2023-09-30T08:55:59;9.48;;;2.50;;
61907;SDS011;47864;52.526;19.672;2023-09-30T08:58:01;6.65;;;2.03;;
61907;SDS011;47864;52.526;19.672;2023-09-30T09:00:04;9.67;;;2.63;;
61907;SDS011;47864;52.526;19.672;2023-09-30T09:02:09;8.40;;;2.22;;
61907;SDS011;47864;52.526;19.672;2023-09-30T09:04:11;7.15;;;2.20;;
61907;SDS011;47864;52.526;19.672;2023-09-30T09:06:14;11.30;;;2.65;;
61907;SDS011;47864;52.526;19.672;2023-09-30T09:08:16;8.95;;;2.60;;
61907;SDS011;47864;52.526;19.672;2023-09-30T09:10:17;8.40;;;2.72;;
61907;SDS011;47864;52.526;19.672;2023-09-30T09:12:19;11.00;;;2.63;;
61907;SDS011;47864;52.526;19.672;2023-09-30T09:14:40;9.13;;;2.40;;
61907;SDS011;47864;52.526;19.672;2023-09-30T09:16:53;7.60;;;2.60;;
61907;SDS011;47864;52.526;19.672;2023-09-30T09:18:56;7.53;;;2.30;;
61907;SDS011;47864;52.526;19.672;2023-09-30T09:21:11;8.90;;;2.70;;
61907;SDS011;47864;52.526;19.672;2023-09-30T09:23:14;10.63;;;3.10;;
61907;SDS011;47864;52.526;19.672;2023-09-30T09:25:16;11.35;;;2.85;;
61907;SDS011;47864;52.526;19.672;2023-09-30T09:27:18;7.70;;;2.70;;
61907;SDS011;47864;52.526;19.672;2023-09-30T09:29:19;7.35;;;2.63;;
61907;SDS011;47864;52.526;19.672;2023-09-30T09:31:28;9.75;;;2.80;;
61907;SDS011;47864;52.526;19.672;2023-09-30T09:33:36;8.25;;;2.40;;
61907;SDS011;47864;52.526;19.672;2023-09-30T09:35:38;7.63;;;2.50;;
61907;SDS011;47864;52.526;19.672;2023-09-30T09:37:39;9.77;;;2.42;;
61907;SDS011;47864;52.526;19.672;2023-09-30T09:41:52;10.70;;;2.78;;
61907;SDS011;47864;52.526;19.672;2023-09-30T09:43:54;12.03;;;2.83;;
61907;SDS011;47864;52.526;19.672;2023-09-30T09:45:59;18.40;;;8.80;;
61907;SDS011;47864;52.526;19.672;2023-09-30T09:48:02;12.63;;;4.13;;
61907;SDS011;47864;52.526;19.672;2023-09-30T09:50:05;9.35;;;2.90;;
61907;SDS011;47864;52.526;19.672;2023-09-30T09:52:07;13.23;;;3.22;;
61907;SDS011;47864;52.526;19.672;2023-09-30T09:54:10;10.18;;;2.92;;
61907;SDS011;47864;52.526;19.672;2023-09-30T09:56:12;10.60;;;3.88;;
61907;SDS011;47864;52.526;19.672;2023-09-30T09:58:14;9.38;;;2.80;;
61907;SDS011;47864;52.526;19.672;2023-09-30T10:00:18;10.03;;;2.87;;
61907;SDS011;47864;52.526;19.672;2023-09-30T10:02:21;8.65;;;2.67;;
61907;SDS011;47864;52.526;19.672;2023-09-30T10:04:23;9.27;;;2.92;;
61907;SDS011;47864;52.526;19.672;2023-09-30T10:06:25;12.10;;;3.35;;
61907;SDS011;47864;52.526;19.672;2023-09-30T10:08:40;9.10;;;2.65;;
61907;SDS011;47864;52.526;19.672;2023-09-30T10:10:46;10.10;;;2.30;;
61907;SDS011;47864;52.526;19.672;2023-09-30T10:12:47;8.77;;;2.63;;
61907;SDS011;47864;52.526;19.672;2023-09-30T10:14:49;8.07;;;2.45;;
61907;SDS011;47864;52.526;19.672;2023-09-30T10:16:50;10.10;;;2.70;;
61907;SDS011;47864;52.526;19.672;2023-09-30T10:21:17;13.00;;;2.72;;
61907;SDS011;47864;52.526;19.672;2023-09-30T10:25:33;8.27;;;2.35;;
61907;SDS011;47864;52.526;19.672;2023-09-30T10:27:35;9.60;;;2.83;;
61907;SDS011;47864;52.526;19.672;2023-09-30T10:29:40;11.13;;;2.65;;
61907;SDS011;47864;52.526;19.672;2023-09-30T10:31:51;7.22;;;2.50;;
61907;SDS011;47864;52.526;19.672;2023-09-30T10:36:00;12.07;;;2.97;;
61907;SDS011;47864;52.526;19.672;2023-09-30T10:40:26;11.25;;;3.05;;
61907;SDS011;47864;52.526;19.672;2023-09-30T10:44:51;14.38;;;2.50;;
61907;SDS011;47864;52.526;19.672;2023-09-30T10:46:53;7.93;;;2.63;;
61907;SDS011;47864;52.526;19.672;2023-09-30T10:49:29;9.77;;;3.40;;
61907;SDS011;47864;52.526;19.672;2023-09-30T10:51:31;9.48;;;2.60;;
61907;SDS011;47864;52.526;19.672;2023-09-30T10:53:40;10.25;;;2.78;;
61907;SDS011;47864;52.526;19.672;2023-09-30T10:55:44;9.77;;;2.58;;
61907;SDS011;47864;52.526;19.672;2023-09-30T10:57:50;9.93;;;2.72;;
61907;SDS011;47864;52.526;19.672;2023-09-30T11:00:06;9.27;;;2.80;;
61907;SDS011;47864;52.526;19.672;2023-09-30T11:02:18;10.95;;;2.80;;
61907;SDS011;47864;52.526;19.672;2023-09-30T11:04:21;10.27;;;3.00;;
61907;SDS011;47864;52.526;19.672;2023-09-30T11:06:23;10.32;;;2.60;;
61907;SDS011;47864;52.526;19.672;2023-09-30T11:08:25;8.45;;;2.75;;
61907;SDS011;47864;52.526;19.672;2023-09-30T11:10:30;10.68;;;2.55;;
61907;SDS011;47864;52.526;19.672;2023-09-30T11:12:32;6.85;;;2.22;;
61907;SDS011;47864;52.526;19.672;2023-09-30T11:14:33;9.48;;;2.50;;
61907;SDS011;47864;52.526;19.672;2023-09-30T11:16:41;7.28;;;2.20;;
61907;SDS011;47864;52.526;19.672;2023-09-30T11:18:44;7.45;;;2.42;;
61907;SDS011;47864;52.526;19.672;2023-09-30T11:20:45;11.48;;;2.80;;
61907;SDS011;47864;52.526;19.672;2023-09-30T11:22:47;9.48;;;2.53;;
61907;SDS011;47864;52.526;19.672;2023-09-30T11:24:49;7.72;;;2.40;;
61907;SDS011;47864;52.526;19.672;2023-09-30T11:26:53;12.95;;;3.00;;
61907;SDS011;47864;52.526;19.672;2023-09-30T11:28:55;10.70;;;2.72;;
61907;SDS011;47864;52.526;19.672;2023-09-30T11:31:01;8.55;;;2.63;;
61907;SDS011;47864;52.526;19.672;2023-09-30T11:33:03;9.75;;;2.33;;
61907;SDS011;47864;52.526;19.672;2023-09-30T11:35:08;10.00;;;2.65;;
61907;SDS011;47864;52.526;19.672;2023-09-30T11:37:11;7.85;;;2.35;;
61907;SDS011;47864;52.526;19.672;2023-09-30T11:39:21;12.90;;;2.75;;
61907;SDS011;47864;52.526;19.672;2023-09-30T11:41:31;10.68;;;2.83;;
61907;SDS011;47864;52.526;19.672;2023-09-30T11:43:34;12.45;;;2.88;;
61907;SDS011;47864;52.526;19.672;2023-09-30T11:45:36;9.15;;;2.50;;
61907;SDS011;47864;52.526;19.672;2023-09-30T11:47:38;8.75;;;2.58;;
61907;SDS011;47864;52.526;19.672;2023-09-30T11:49:40;13.13;;;2.35;;
61907;SDS011;47864;52.526;19.672;2023-09-30T11:53:44;10.02;;;2.28;;
61907;SDS011;47864;52.526;19.672;2023-09-30T11:55:46;10.73;;;2.40;;
61907;SDS011;47864;52.526;19.672;2023-09-30T11:57:48;5.88;;;2.35;;
61907;SDS011;47864;52.526;19.672;2023-09-30T11:59:49;13.02;;;2.72;;
61907;SDS011;47864;52.526;19.672;2023-09-30T12:01:50;9.35;;;2.55;;
61907;SDS011;47864;52.526;19.672;2023-09-30T12:04:07;8.73;;;3.05;;
61907;SDS011;47864;52.526;19.672;2023-09-30T12:06:08;7.82;;;2.67;;
61907;SDS011;47864;52.526;19.672;2023-09-30T12:08:10;9.45;;;2.65;;
61907;SDS011;47864;52.526;19.672;2023-09-30T12:10:11;10.57;;;2.90;;
61907;SDS011;47864;52.526;19.672;2023-09-30T12:12:13;11.30;;;3.42;;